sensor_id;sensor_type;location;lat;lon;timestamp;P1;durP1;ratioP1;P2;durP2;ratioP2
59442;SDS011;45247;47.466;19.004;2022-09-03T00:00:50;17.38;;;9.85;;
59442;SDS011;45247;47.466;19.004;2022-09-03T00:03:23;15.60;;;8.77;;
59442;SDS011;45247;47.466;19.004;2022-09-03T00:06:00;14.90;;;7.60;;
59442;SDS011;45247;47.466;19.004;2022-09-03T00:08:36;18.55;;;8.45;;
59442;SDS011;45247;47.466;19.004;2022-09-03T00:11:13;21.90;;;8.70;;
59442;SDS011;45247;47.466;19.004;2022-09-03T00:13:49;12.20;;;8.13;;
59442;SDS011;45247;47.466;19.004;2022-09-03T00:16:23;18.80;;;8.13;;
59442;SDS011;45247;47.466;19.004;2022-09-03T00:18:57;15.27;;;8.60;;
59442;SDS011;45247;47.466;19.004;2022-09-03T00:21:31;11.57;;;7.43;;
59442;SDS011;45247;47.466;19.004;2022-09-03T00:24:05;12.13;;;6.47;;
59442;SDS011;45247;47.466;19.004;2022-09-03T00:26:43;13.57;;;7.53;;
59442;SDS011;45247;47.466;19.004;2022-09-03T00:29:15;13.75;;;6.97;;
59442;SDS011;45247;47.466;19.004;2022-09-03T00:31:46;17.83;;;8.18;;
59442;SDS011;45247;47.466;19.004;2022-09-03T00:34:19;11.98;;;7.72;;
59442;SDS011;45247;47.466;19.004;2022-09-03T00:36:50;15.73;;;7.82;;
59442;SDS011;45247;47.466;19.004;2022-09-03T00:39:20;20.75;;;8.25;;
59442;SDS011;45247;47.466;19.004;2022-09-03T00:41:59;16.55;;;7.22;;
59442;SDS011;45247;47.466;19.004;2022-09-03T00:44:43;13.50;;;6.55;;
59442;SDS011;45247;47.466;19.004;2022-09-03T00:47:23;13.10;;;6.85;;
59442;SDS011;45247;47.466;19.004;2022-09-03T00:50:00;12.15;;;7.60;;
59442;SDS011;45247;47.466;19.004;2022-09-03T00:52:40;14.43;;;8.23;;
59442;SDS011;45247;47.466;19.004;2022-09-03T00:55:18;12.27;;;7.43;;
59442;SDS011;45247;47.466;19.004;2022-09-03T00:58:01;10.75;;;7.78;;
59442;SDS011;45247;47.466;19.004;2022-09-03T01:00:38;12.30;;;7.18;;
59442;SDS011;45247;47.466;19.004;2022-09-03T01:03:10;8.70;;;5.93;;
59442;SDS011;45247;47.466;19.004;2022-09-03T01:05:52;16.10;;;7.13;;
59442;SDS011;45247;47.466;19.004;2022-09-03T01:08:35;11.85;;;6.75;;
59442;SDS011;45247;47.466;19.004;2022-09-03T01:11:46;13.88;;;7.18;;
59442;SDS011;45247;47.466;19.004;2022-09-03T01:14:30;14.93;;;7.38;;
59442;SDS011;45247;47.466;19.004;2022-09-03T01:17:12;14.75;;;6.80;;
59442;SDS011;45247;47.466;19.004;2022-09-03T01:20:00;18.17;;;7.97;;
59442;SDS011;45247;47.466;19.004;2022-09-03T01:25:50;13.45;;;6.70;;
59442;SDS011;45247;47.466;19.004;2022-09-03T01:28:29;14.10;;;6.95;;
59442;SDS011;45247;47.466;19.004;2022-09-03T01:31:15;13.65;;;7.30;;
59442;SDS011;45247;47.466;19.004;2022-09-03T01:33:54;13.95;;;7.55;;
59442;SDS011;45247;47.466;19.004;2022-09-03T01:36:33;11.00;;;7.45;;
59442;SDS011;45247;47.466;19.004;2022-09-03T01:39:11;12.50;;;6.90;;
59442;SDS011;45247;47.466;19.004;2022-09-03T01:41:47;10.95;;;6.50;;
59442;SDS011;45247;47.466;19.004;2022-09-03T01:45:03;11.25;;;6.68;;
59442;SDS011;45247;47.466;19.004;2022-09-03T01:47:51;10.68;;;6.35;;
59442;SDS011;45247;47.466;19.004;2022-09-03T01:50:32;10.77;;;6.45;;
59442;SDS011;45247;47.466;19.004;2022-09-03T01:53:09;12.00;;;7.25;;
59442;SDS011;45247;47.466;19.004;2022-09-03T01:55:50;14.75;;;7.53;;
59442;SDS011;45247;47.466;19.004;2022-09-03T01:58:28;11.50;;;6.40;;
59442;SDS011;45247;47.466;19.004;2022-09-03T02:01:04;11.20;;;5.82;;
59442;SDS011;45247;47.466;19.004;2022-09-03T02:03:43;16.60;;;7.78;;
59442;SDS011;45247;47.466;19.004;2022-09-03T02:06:13;13.88;;;6.78;;
59442;SDS011;45247;47.466;19.004;2022-09-03T02:08:46;13.02;;;7.43;;
59442;SDS011;45247;47.466;19.004;2022-09-03T02:11:14;15.30;;;8.23;;
59442;SDS011;45247;47.466;19.004;2022-09-03T02:13:43;11.93;;;6.60;;
59442;SDS011;45247;47.466;19.004;2022-09-03T02:16:16;24.52;;;7.63;;
59442;SDS011;45247;47.466;19.004;2022-09-03T02:18:49;14.77;;;7.38;;
59442;SDS011;45247;47.466;19.004;2022-09-03T02:21:21;13.10;;;6.70;;
59442;SDS011;45247;47.466;19.004;2022-09-03T02:23:51;10.90;;;6.15;;
59442;SDS011;45247;47.466;19.004;2022-09-03T02:26:20;15.93;;;7.43;;
59442;SDS011;45247;47.466;19.004;2022-09-03T02:28:50;13.25;;;7.45;;
59442;SDS011;45247;47.466;19.004;2022-09-03T02:31:22;15.65;;;8.32;;
59442;SDS011;45247;47.466;19.004;2022-09-03T02:33:50;17.38;;;8.70;;
59442;SDS011;45247;47.466;19.004;2022-09-03T02:36:19;14.57;;;7.88;;
59442;SDS011;45247;47.466;19.004;2022-09-03T02:38:53;16.05;;;8.70;;
59442;SDS011;45247;47.466;19.004;2022-09-03T02:41:21;19.80;;;10.10;;
59442;SDS011;45247;47.466;19.004;2022-09-03T02:43:53;17.98;;;8.38;;
59442;SDS011;45247;47.466;19.004;2022-09-03T02:46:31;12.60;;;6.90;;
59442;SDS011;45247;47.466;19.004;2022-09-03T02:49:02;11.25;;;6.32;;
59442;SDS011;45247;47.466;19.004;2022-09-03T02:51:31;13.15;;;6.57;;
59442;SDS011;45247;47.466;19.004;2022-09-03T02:54:00;11.40;;;6.47;;
59442;SDS011;45247;47.466;19.004;2022-09-03T02:56:29;11.02;;;6.10;;
59442;SDS011;45247;47.466;19.004;2022-09-03T02:58:57;11.15;;;5.65;;
59442;SDS011;45247;47.466;19.004;2022-09-03T03:01:25;10.95;;;6.13;;
59442;SDS011;45247;47.466;19.004;2022-09-03T03:03:59;28.83;;;7.95;;
59442;SDS011;45247;47.466;19.004;2022-09-03T03:06:27;16.38;;;8.02;;
59442;SDS011;45247;47.466;19.004;2022-09-03T03:08:55;17.90;;;7.40;;
59442;SDS011;45247;47.466;19.004;2022-09-03T03:11:24;13.20;;;6.97;;
59442;SDS011;45247;47.466;19.004;2022-09-03T03:13:53;10.38;;;6.10;;
59442;SDS011;45247;47.466;19.004;2022-09-03T03:16:21;9.23;;;5.80;;
59442;SDS011;45247;47.466;19.004;2022-09-03T03:18:49;13.80;;;5.95;;
59442;SDS011;45247;47.466;19.004;2022-09-03T03:21:19;16.80;;;7.78;;
59442;SDS011;45247;47.466;19.004;2022-09-03T03:23:47;19.63;;;7.68;;
59442;SDS011;45247;47.466;19.004;2022-09-03T03:26:17;12.68;;;7.43;;
59442;SDS011;45247;47.466;19.004;2022-09-03T03:28:46;15.38;;;7.45;;
59442;SDS011;45247;47.466;19.004;2022-09-03T03:31:16;12.40;;;7.50;;
59442;SDS011;45247;47.466;19.004;2022-09-03T03:33:49;12.75;;;7.80;;
59442;SDS011;45247;47.466;19.004;2022-09-03T03:36:20;11.50;;;7.00;;
59442;SDS011;45247;47.466;19.004;2022-09-03T03:38:52;14.10;;;6.55;;
59442;SDS011;45247;47.466;19.004;2022-09-03T03:41:21;13.85;;;7.55;;
59442;SDS011;45247;47.466;19.004;2022-09-03T03:43:51;13.30;;;7.80;;
59442;SDS011;45247;47.466;19.004;2022-09-03T03:46:21;14.05;;;7.32;;
59442;SDS011;45247;47.466;19.004;2022-09-03T03:48:50;14.05;;;7.90;;
59442;SDS011;45247;47.466;19.004;2022-09-03T03:51:20;26.27;;;8.27;;
59442;SDS011;45247;47.466;19.004;2022-09-03T03:53:52;15.43;;;8.57;;
59442;SDS011;45247;47.466;19.004;2022-09-03T03:56:22;16.52;;;8.50;;
59442;SDS011;45247;47.466;19.004;2022-09-03T03:58:53;15.35;;;7.50;;
59442;SDS011;45247;47.466;19.004;2022-09-03T04:01:22;13.45;;;8.05;;
59442;SDS011;45247;47.466;19.004;2022-09-03T04:03:53;13.10;;;7.28;;
59442;SDS011;45247;47.466;19.004;2022-09-03T04:06:23;14.75;;;6.97;;
59442;SDS011;45247;47.466;19.004;2022-09-03T04:08:51;13.18;;;7.10;;
59442;SDS011;45247;47.466;19.004;2022-09-03T04:11:21;12.45;;;6.93;;
59442;SDS011;45247;47.466;19.004;2022-09-03T04:13:50;13.98;;;6.70;;
59442;SDS011;45247;47.466;19.004;2022-09-03T04:16:20;14.23;;;7.10;;
59442;SDS011;45247;47.466;19.004;2022-09-03T04:18:49;14.48;;;7.22;;
59442;SDS011;45247;47.466;19.004;2022-09-03T04:21:19;13.45;;;8.13;;
59442;SDS011;45247;47.466;19.004;2022-09-03T04:23:50;15.90;;;8.23;;
59442;SDS011;45247;47.466;19.004;2022-09-03T04:26:19;14.45;;;8.75;;
59442;SDS011;45247;47.466;19.004;2022-09-03T04:28:49;18.17;;;8.70;;
59442;SDS011;45247;47.466;19.004;2022-09-03T04:31:18;12.75;;;8.25;;
59442;SDS011;45247;47.466;19.004;2022-09-03T04:33:49;12.55;;;7.47;;
59442;SDS011;45247;47.466;19.004;2022-09-03T04:36:18;13.90;;;7.20;;
59442;SDS011;45247;47.466;19.004;2022-09-03T04:38:48;15.02;;;7.95;;
59442;SDS011;45247;47.466;19.004;2022-09-03T04:41:20;14.82;;;7.10;;
59442;SDS011;45247;47.466;19.004;2022-09-03T04:43:50;11.93;;;7.45;;
59442;SDS011;45247;47.466;19.004;2022-09-03T04:46:20;17.58;;;7.95;;
59442;SDS011;45247;47.466;19.004;2022-09-03T04:48:50;12.93;;;8.38;;
59442;SDS011;45247;47.466;19.004;2022-09-03T04:51:19;12.15;;;6.40;;
59442;SDS011;45247;47.466;19.004;2022-09-03T04:53:53;12.48;;;6.18;;
59442;SDS011;45247;47.466;19.004;2022-09-03T04:56:24;8.15;;;5.97;;
59442;SDS011;45247;47.466;19.004;2022-09-03T04:58:54;13.73;;;5.80;;
59442;SDS011;45247;47.466;19.004;2022-09-03T05:01:24;11.75;;;4.85;;
59442;SDS011;45247;47.466;19.004;2022-09-03T05:03:54;9.90;;;4.68;;
59442;SDS011;45247;47.466;19.004;2022-09-03T05:06:23;9.70;;;4.53;;
59442;SDS011;45247;47.466;19.004;2022-09-03T05:08:53;13.95;;;4.90;;
59442;SDS011;45247;47.466;19.004;2022-09-03T05:11:23;9.05;;;5.22;;
59442;SDS011;45247;47.466;19.004;2022-09-03T05:13:52;14.10;;;4.93;;
59442;SDS011;45247;47.466;19.004;2022-09-03T05:16:23;8.45;;;4.63;;
59442;SDS011;45247;47.466;19.004;2022-09-03T05:18:54;12.15;;;4.78;;
59442;SDS011;45247;47.466;19.004;2022-09-03T05:21:25;18.70;;;4.93;;
59442;SDS011;45247;47.466;19.004;2022-09-03T05:23:55;10.30;;;4.38;;
59442;SDS011;45247;47.466;19.004;2022-09-03T05:26:24;11.40;;;5.15;;
59442;SDS011;45247;47.466;19.004;2022-09-03T05:28:54;11.90;;;5.05;;
59442;SDS011;45247;47.466;19.004;2022-09-03T05:31:24;11.07;;;4.90;;
59442;SDS011;45247;47.466;19.004;2022-09-03T05:33:54;13.13;;;5.60;;
59442;SDS011;45247;47.466;19.004;2022-09-03T05:36:25;14.77;;;5.20;;
59442;SDS011;45247;47.466;19.004;2022-09-03T05:38:57;11.85;;;5.00;;
59442;SDS011;45247;47.466;19.004;2022-09-03T05:41:26;10.00;;;5.10;;
59442;SDS011;45247;47.466;19.004;2022-09-03T05:43:55;12.95;;;5.47;;
59442;SDS011;45247;47.466;19.004;2022-09-03T05:46:25;15.85;;;5.95;;
59442;SDS011;45247;47.466;19.004;2022-09-03T05:48:57;11.02;;;5.90;;
59442;SDS011;45247;47.466;19.004;2022-09-03T05:51:26;11.27;;;5.80;;
59442;SDS011;45247;47.466;19.004;2022-09-03T05:53:57;12.25;;;5.80;;
59442;SDS011;45247;47.466;19.004;2022-09-03T05:56:26;9.40;;;5.60;;
59442;SDS011;45247;47.466;19.004;2022-09-03T05:58:57;12.67;;;5.20;;
59442;SDS011;45247;47.466;19.004;2022-09-03T06:01:28;10.87;;;5.70;;
59442;SDS011;45247;47.466;19.004;2022-09-03T06:03:57;13.20;;;5.88;;
59442;SDS011;45247;47.466;19.004;2022-09-03T06:06:27;12.07;;;5.95;;
59442;SDS011;45247;47.466;19.004;2022-09-03T06:08:59;16.88;;;6.15;;
59442;SDS011;45247;47.466;19.004;2022-09-03T06:11:28;17.40;;;5.60;;
59442;SDS011;45247;47.466;19.004;2022-09-03T06:13:58;17.27;;;5.80;;
59442;SDS011;45247;47.466;19.004;2022-09-03T06:16:28;11.77;;;5.47;;
59442;SDS011;45247;47.466;19.004;2022-09-03T06:18:57;13.18;;;5.28;;
59442;SDS011;45247;47.466;19.004;2022-09-03T06:21:26;12.25;;;6.28;;
59442;SDS011;45247;47.466;19.004;2022-09-03T06:23:55;9.27;;;5.65;;
59442;SDS011;45247;47.466;19.004;2022-09-03T06:26:27;10.55;;;5.85;;
59442;SDS011;45247;47.466;19.004;2022-09-03T06:28:56;15.20;;;5.35;;
59442;SDS011;45247;47.466;19.004;2022-09-03T06:31:25;17.50;;;4.90;;
59442;SDS011;45247;47.466;19.004;2022-09-03T06:33:53;11.73;;;4.63;;
59442;SDS011;45247;47.466;19.004;2022-09-03T06:36:28;12.90;;;4.95;;
59442;SDS011;45247;47.466;19.004;2022-09-03T06:38:57;9.30;;;4.88;;
59442;SDS011;45247;47.466;19.004;2022-09-03T06:41:29;9.32;;;4.68;;
59442;SDS011;45247;47.466;19.004;2022-09-03T06:43:59;14.00;;;4.85;;
59442;SDS011;45247;47.466;19.004;2022-09-03T06:46:29;16.23;;;4.35;;
59442;SDS011;45247;47.466;19.004;2022-09-03T06:48:58;14.23;;;4.57;;
59442;SDS011;45247;47.466;19.004;2022-09-03T06:51:28;12.48;;;4.50;;
59442;SDS011;45247;47.466;19.004;2022-09-03T06:53:58;16.83;;;4.65;;
59442;SDS011;45247;47.466;19.004;2022-09-03T06:56:29;10.18;;;4.38;;
59442;SDS011;45247;47.466;19.004;2022-09-03T06:59:05;10.85;;;4.28;;
59442;SDS011;45247;47.466;19.004;2022-09-03T07:01:34;13.07;;;5.28;;
59442;SDS011;45247;47.466;19.004;2022-09-03T07:04:10;7.78;;;3.95;;
59442;SDS011;45247;47.466;19.004;2022-09-03T07:06:42;7.97;;;4.65;;
59442;SDS011;45247;47.466;19.004;2022-09-03T07:09:11;10.07;;;4.65;;
59442;SDS011;45247;47.466;19.004;2022-09-03T07:11:42;10.02;;;4.93;;
59442;SDS011;45247;47.466;19.004;2022-09-03T07:14:14;9.35;;;4.60;;
59442;SDS011;45247;47.466;19.004;2022-09-03T07:16:44;16.17;;;5.72;;
59442;SDS011;45247;47.466;19.004;2022-09-03T07:19:14;11.27;;;4.97;;
59442;SDS011;45247;47.466;19.004;2022-09-03T07:21:42;7.93;;;4.35;;
59442;SDS011;45247;47.466;19.004;2022-09-03T07:24:16;20.48;;;5.55;;
59442;SDS011;45247;47.466;19.004;2022-09-03T07:26:46;15.20;;;5.85;;
59442;SDS011;45247;47.466;19.004;2022-09-03T07:29:15;11.20;;;5.53;;
59442;SDS011;45247;47.466;19.004;2022-09-03T07:31:48;14.07;;;5.82;;
59442;SDS011;45247;47.466;19.004;2022-09-03T07:34:20;9.18;;;5.72;;
59442;SDS011;45247;47.466;19.004;2022-09-03T07:36:52;16.17;;;6.10;;
59442;SDS011;45247;47.466;19.004;2022-09-03T07:39:20;14.75;;;6.38;;
59442;SDS011;45247;47.466;19.004;2022-09-03T07:41:50;17.85;;;6.50;;
59442;SDS011;45247;47.466;19.004;2022-09-03T07:44:20;15.38;;;6.53;;
59442;SDS011;45247;47.466;19.004;2022-09-03T07:46:48;14.13;;;6.72;;
59442;SDS011;45247;47.466;19.004;2022-09-03T07:49:18;12.30;;;5.50;;
59442;SDS011;45247;47.466;19.004;2022-09-03T07:51:47;11.85;;;6.65;;
59442;SDS011;45247;47.466;19.004;2022-09-03T07:56:51;17.17;;;7.50;;
59442;SDS011;45247;47.466;19.004;2022-09-03T07:59:19;17.67;;;7.40;;
59442;SDS011;45247;47.466;19.004;2022-09-03T08:01:48;16.67;;;7.03;;
59442;SDS011;45247;47.466;19.004;2022-09-03T08:04:17;14.15;;;7.65;;
59442;SDS011;45247;47.466;19.004;2022-09-03T08:06:46;15.23;;;6.80;;
59442;SDS011;45247;47.466;19.004;2022-09-03T08:09:15;13.02;;;6.57;;
59442;SDS011;45247;47.466;19.004;2022-09-03T08:11:43;20.70;;;7.63;;
59442;SDS011;45247;47.466;19.004;2022-09-03T08:14:12;19.95;;;6.95;;
59442;SDS011;45247;47.466;19.004;2022-09-03T08:16:42;12.73;;;6.13;;
59442;SDS011;45247;47.466;19.004;2022-09-03T08:19:13;14.23;;;5.38;;
59442;SDS011;45247;47.466;19.004;2022-09-03T08:21:44;14.95;;;6.53;;
59442;SDS011;45247;47.466;19.004;2022-09-03T08:24:15;12.70;;;6.00;;
59442;SDS011;45247;47.466;19.004;2022-09-03T08:26:44;12.48;;;5.30;;
59442;SDS011;45247;47.466;19.004;2022-09-03T08:29:19;15.77;;;5.05;;
59442;SDS011;45247;47.466;19.004;2022-09-03T08:31:48;11.45;;;5.22;;
59442;SDS011;45247;47.466;19.004;2022-09-03T08:34:16;11.13;;;5.20;;
59442;SDS011;45247;47.466;19.004;2022-09-03T08:36:45;12.93;;;5.53;;
59442;SDS011;45247;47.466;19.004;2022-09-03T08:39:14;12.75;;;5.38;;
59442;SDS011;45247;47.466;19.004;2022-09-03T08:44:50;15.50;;;6.10;;
59442;SDS011;45247;47.466;19.004;2022-09-03T08:47:22;12.35;;;5.28;;
59442;SDS011;45247;47.466;19.004;2022-09-03T08:49:54;10.65;;;5.45;;
59442;SDS011;45247;47.466;19.004;2022-09-03T08:52:27;11.48;;;4.80;;
59442;SDS011;45247;47.466;19.004;2022-09-03T08:55:01;8.40;;;4.95;;
59442;SDS011;45247;47.466;19.004;2022-09-03T08:57:41;26.92;;;5.70;;
59442;SDS011;45247;47.466;19.004;2022-09-03T09:00:15;10.68;;;5.13;;
59442;SDS011;45247;47.466;19.004;2022-09-03T09:02:47;10.32;;;5.20;;
59442;SDS011;45247;47.466;19.004;2022-09-03T09:05:31;12.57;;;4.70;;
59442;SDS011;45247;47.466;19.004;2022-09-03T09:10:44;10.82;;;5.20;;
59442;SDS011;45247;47.466;19.004;2022-09-03T09:13:18;8.98;;;5.22;;
59442;SDS011;45247;47.466;19.004;2022-09-03T09:15:56;11.75;;;4.68;;
59442;SDS011;45247;47.466;19.004;2022-09-03T09:18:36;16.67;;;5.13;;
59442;SDS011;45247;47.466;19.004;2022-09-03T09:21:15;8.80;;;4.57;;
59442;SDS011;45247;47.466;19.004;2022-09-03T09:23:51;12.07;;;4.53;;
59442;SDS011;45247;47.466;19.004;2022-09-03T09:26:22;17.38;;;5.25;;
59442;SDS011;45247;47.466;19.004;2022-09-03T09:28:54;14.25;;;4.15;;
59442;SDS011;45247;47.466;19.004;2022-09-03T09:31:31;16.65;;;4.72;;
59442;SDS011;45247;47.466;19.004;2022-09-03T09:34:02;8.20;;;4.50;;
59442;SDS011;45247;47.466;19.004;2022-09-03T09:36:35;16.52;;;4.65;;
59442;SDS011;45247;47.466;19.004;2022-09-03T09:39:10;9.70;;;4.55;;
59442;SDS011;45247;47.466;19.004;2022-09-03T09:41:41;13.02;;;4.60;;
59442;SDS011;45247;47.466;19.004;2022-09-03T09:44:18;11.25;;;4.50;;
59442;SDS011;45247;47.466;19.004;2022-09-03T09:46:48;10.93;;;4.78;;
59442;SDS011;45247;47.466;19.004;2022-09-03T09:49:30;11.70;;;4.15;;
59442;SDS011;45247;47.466;19.004;2022-09-03T09:52:01;9.85;;;4.32;;
59442;SDS011;45247;47.466;19.004;2022-09-03T09:54:31;8.80;;;4.10;;
59442;SDS011;45247;47.466;19.004;2022-09-03T09:57:00;8.13;;;4.30;;
59442;SDS011;45247;47.466;19.004;2022-09-03T09:59:31;12.05;;;4.25;;
59442;SDS011;45247;47.466;19.004;2022-09-03T10:02:10;12.02;;;4.40;;
59442;SDS011;45247;47.466;19.004;2022-09-03T10:04:47;11.18;;;4.97;;
59442;SDS011;45247;47.466;19.004;2022-09-03T10:07:22;14.35;;;4.50;;
59442;SDS011;45247;47.466;19.004;2022-09-03T10:09:59;8.27;;;4.28;;
59442;SDS011;45247;47.466;19.004;2022-09-03T10:12:30;11.70;;;4.47;;
59442;SDS011;45247;47.466;19.004;2022-09-03T10:17:43;10.80;;;4.40;;
59442;SDS011;45247;47.466;19.004;2022-09-03T10:20:21;9.73;;;3.90;;
59442;SDS011;45247;47.466;19.004;2022-09-03T10:22:59;8.82;;;4.30;;
59442;SDS011;45247;47.466;19.004;2022-09-03T10:25:34;11.77;;;4.13;;
59442;SDS011;45247;47.466;19.004;2022-09-03T10:28:07;16.45;;;3.90;;
59442;SDS011;45247;47.466;19.004;2022-09-03T10:30:52;15.38;;;4.50;;
59442;SDS011;45247;47.466;19.004;2022-09-03T10:33:30;15.43;;;4.05;;
59442;SDS011;45247;47.466;19.004;2022-09-03T10:36:07;14.48;;;4.32;;
59442;SDS011;45247;47.466;19.004;2022-09-03T10:38:41;6.93;;;3.95;;
59442;SDS011;45247;47.466;19.004;2022-09-03T10:41:15;8.10;;;3.90;;
59442;SDS011;45247;47.466;19.004;2022-09-03T10:44:05;10.07;;;4.63;;
59442;SDS011;45247;47.466;19.004;2022-09-03T10:46:50;6.57;;;3.42;;
59442;SDS011;45247;47.466;19.004;2022-09-03T10:49:33;7.50;;;3.92;;
59442;SDS011;45247;47.466;19.004;2022-09-03T10:52:16;11.50;;;3.72;;
59442;SDS011;45247;47.466;19.004;2022-09-03T10:54:57;10.65;;;4.50;;
59442;SDS011;45247;47.466;19.004;2022-09-03T10:57:38;12.93;;;4.40;;
59442;SDS011;45247;47.466;19.004;2022-09-03T11:00:13;8.35;;;4.40;;
59442;SDS011;45247;47.466;19.004;2022-09-03T11:06:02;6.45;;;3.55;;
59442;SDS011;45247;47.466;19.004;2022-09-03T11:08:35;9.60;;;3.38;;
59442;SDS011;45247;47.466;19.004;2022-09-03T11:11:11;10.40;;;3.67;;
59442;SDS011;45247;47.466;19.004;2022-09-03T11:13:46;5.65;;;3.20;;
59442;SDS011;45247;47.466;19.004;2022-09-03T11:16:21;11.25;;;3.70;;
59442;SDS011;45247;47.466;19.004;2022-09-03T11:21:23;8.48;;;3.65;;
59442;SDS011;45247;47.466;19.004;2022-09-03T11:23:57;10.68;;;3.60;;
59442;SDS011;45247;47.466;19.004;2022-09-03T11:26:34;9.57;;;3.60;;
59442;SDS011;45247;47.466;19.004;2022-09-03T11:29:05;16.10;;;4.45;;
59442;SDS011;45247;47.466;19.004;2022-09-03T11:31:44;12.63;;;4.35;;
59442;SDS011;45247;47.466;19.004;2022-09-03T11:34:27;14.23;;;4.18;;
59442;SDS011;45247;47.466;19.004;2022-09-03T11:40:03;5.30;;;3.57;;
59442;SDS011;45247;47.466;19.004;2022-09-03T11:42:34;11.23;;;3.95;;
59442;SDS011;45247;47.466;19.004;2022-09-03T11:45:12;7.70;;;3.30;;
59442;SDS011;45247;47.466;19.004;2022-09-03T11:47:47;9.50;;;4.65;;
59442;SDS011;45247;47.466;19.004;2022-09-03T11:50:18;6.45;;;3.70;;
59442;SDS011;45247;47.466;19.004;2022-09-03T11:52:51;9.18;;;3.92;;
59442;SDS011;45247;47.466;19.004;2022-09-03T11:55:25;11.85;;;3.58;;
59442;SDS011;45247;47.466;19.004;2022-09-03T11:58:11;9.73;;;3.58;;
59442;SDS011;45247;47.466;19.004;2022-09-03T12:06:01;7.88;;;3.38;;
59442;SDS011;45247;47.466;19.004;2022-09-03T12:08:49;12.18;;;4.20;;
59442;SDS011;45247;47.466;19.004;2022-09-03T12:11:38;12.95;;;3.70;;
59442;SDS011;45247;47.466;19.004;2022-09-03T12:14:17;7.80;;;3.70;;
59442;SDS011;45247;47.466;19.004;2022-09-03T12:16:56;7.38;;;3.90;;
59442;SDS011;45247;47.466;19.004;2022-09-03T12:19:35;6.50;;;3.95;;
59442;SDS011;45247;47.466;19.004;2022-09-03T12:22:11;7.72;;;3.60;;
59442;SDS011;45247;47.466;19.004;2022-09-03T12:24:42;8.93;;;3.83;;
59442;SDS011;45247;47.466;19.004;2022-09-03T12:27:11;8.40;;;3.47;;
59442;SDS011;45247;47.466;19.004;2022-09-03T12:29:51;9.88;;;3.35;;
59442;SDS011;45247;47.466;19.004;2022-09-03T12:32:25;6.25;;;3.50;;
59442;SDS011;45247;47.466;19.004;2022-09-03T12:35:08;9.85;;;3.42;;
59442;SDS011;45247;47.466;19.004;2022-09-03T12:37:38;8.95;;;3.33;;
59442;SDS011;45247;47.466;19.004;2022-09-03T12:40:31;6.63;;;3.77;;
59442;SDS011;45247;47.466;19.004;2022-09-03T12:43:10;8.63;;;3.85;;
59442;SDS011;45247;47.466;19.004;2022-09-03T12:46:00;8.90;;;3.15;;
59442;SDS011;45247;47.466;19.004;2022-09-03T12:48:36;12.13;;;4.47;;
59442;SDS011;45247;47.466;19.004;2022-09-03T12:51:09;8.23;;;3.67;;
59442;SDS011;45247;47.466;19.004;2022-09-03T12:53:57;7.45;;;4.13;;
59442;SDS011;45247;47.466;19.004;2022-09-03T12:56:28;8.65;;;3.35;;
59442;SDS011;45247;47.466;19.004;2022-09-03T12:58:59;9.15;;;3.75;;
59442;SDS011;45247;47.466;19.004;2022-09-03T13:01:31;8.18;;;3.55;;
59442;SDS011;45247;47.466;19.004;2022-09-03T13:04:04;6.10;;;3.35;;
59442;SDS011;45247;47.466;19.004;2022-09-03T13:06:40;11.63;;;3.38;;
59442;SDS011;45247;47.466;19.004;2022-09-03T13:09:18;10.55;;;3.83;;
59442;SDS011;45247;47.466;19.004;2022-09-03T13:11:49;23.60;;;4.32;;
59442;SDS011;45247;47.466;19.004;2022-09-03T13:14:21;11.70;;;3.22;;
59442;SDS011;45247;47.466;19.004;2022-09-03T13:19:50;7.43;;;3.58;;
59442;SDS011;45247;47.466;19.004;2022-09-03T13:22:35;7.30;;;3.30;;
59442;SDS011;45247;47.466;19.004;2022-09-03T13:25:14;7.85;;;3.70;;
59442;SDS011;45247;47.466;19.004;2022-09-03T13:27:53;11.02;;;3.20;;
59442;SDS011;45247;47.466;19.004;2022-09-03T13:30:30;8.32;;;3.17;;
59442;SDS011;45247;47.466;19.004;2022-09-03T13:33:07;6.88;;;3.08;;
59442;SDS011;45247;47.466;19.004;2022-09-03T13:35:44;8.50;;;3.28;;
59442;SDS011;45247;47.466;19.004;2022-09-03T13:38:20;5.10;;;3.05;;
59442;SDS011;45247;47.466;19.004;2022-09-03T13:41:03;5.72;;;3.38;;
59442;SDS011;45247;47.466;19.004;2022-09-03T13:43:42;8.00;;;3.60;;
59442;SDS011;45247;47.466;19.004;2022-09-03T13:46:15;6.80;;;3.00;;
59442;SDS011;45247;47.466;19.004;2022-09-03T13:48:48;6.45;;;3.50;;
59442;SDS011;45247;47.466;19.004;2022-09-03T13:51:42;7.85;;;3.05;;
59442;SDS011;45247;47.466;19.004;2022-09-03T13:54:17;9.32;;;3.20;;
59442;SDS011;45247;47.466;19.004;2022-09-03T13:57:15;4.53;;;2.65;;
59442;SDS011;45247;47.466;19.004;2022-09-03T13:59:53;6.20;;;2.83;;
59442;SDS011;45247;47.466;19.004;2022-09-03T14:02:27;10.45;;;2.90;;
59442;SDS011;45247;47.466;19.004;2022-09-03T14:05:04;6.13;;;3.00;;
59442;SDS011;45247;47.466;19.004;2022-09-03T14:07:42;6.15;;;2.90;;
59442;SDS011;45247;47.466;19.004;2022-09-03T14:10:20;5.50;;;2.63;;
59442;SDS011;45247;47.466;19.004;2022-09-03T14:12:54;7.15;;;3.17;;
59442;SDS011;45247;47.466;19.004;2022-09-03T14:15:34;6.82;;;2.70;;
59442;SDS011;45247;47.466;19.004;2022-09-03T14:18:12;8.05;;;3.08;;
59442;SDS011;45247;47.466;19.004;2022-09-03T14:20:52;6.53;;;2.75;;
59442;SDS011;45247;47.466;19.004;2022-09-03T14:23:26;5.53;;;1.95;;
59442;SDS011;45247;47.466;19.004;2022-09-03T14:26:04;8.07;;;2.97;;
59442;SDS011;45247;47.466;19.004;2022-09-03T14:28:34;4.10;;;2.67;;
59442;SDS011;45247;47.466;19.004;2022-09-03T14:31:08;5.18;;;2.83;;
59442;SDS011;45247;47.466;19.004;2022-09-03T14:33:44;5.45;;;3.00;;
59442;SDS011;45247;47.466;19.004;2022-09-03T14:36:22;8.82;;;3.03;;
59442;SDS011;45247;47.466;19.004;2022-09-03T14:39:07;6.53;;;2.70;;
59442;SDS011;45247;47.466;19.004;2022-09-03T14:41:56;8.52;;;3.28;;
59442;SDS011;45247;47.466;19.004;2022-09-03T14:44:51;5.57;;;2.67;;
59442;SDS011;45247;47.466;19.004;2022-09-03T14:47:56;5.10;;;2.70;;
59442;SDS011;45247;47.466;19.004;2022-09-03T14:50:49;6.25;;;2.90;;
59442;SDS011;45247;47.466;19.004;2022-09-03T14:53:36;5.68;;;2.67;;
59442;SDS011;45247;47.466;19.004;2022-09-03T14:56:28;7.22;;;2.80;;
59442;SDS011;45247;47.466;19.004;2022-09-03T14:59:11;5.32;;;3.00;;
59442;SDS011;45247;47.466;19.004;2022-09-03T15:01:52;6.70;;;3.13;;
59442;SDS011;45247;47.466;19.004;2022-09-03T15:04:50;8.15;;;2.50;;
59442;SDS011;45247;47.466;19.004;2022-09-03T15:07:40;10.18;;;2.90;;
59442;SDS011;45247;47.466;19.004;2022-09-03T15:10:14;6.78;;;2.90;;
59442;SDS011;45247;47.466;19.004;2022-09-03T15:12:49;4.15;;;2.72;;
59442;SDS011;45247;47.466;19.004;2022-09-03T15:15:19;6.82;;;2.60;;
59442;SDS011;45247;47.466;19.004;2022-09-03T15:17:56;4.97;;;2.70;;
59442;SDS011;45247;47.466;19.004;2022-09-03T15:20:34;9.80;;;2.90;;
59442;SDS011;45247;47.466;19.004;2022-09-03T15:23:18;7.95;;;2.88;;
59442;SDS011;45247;47.466;19.004;2022-09-03T15:28:58;5.90;;;2.67;;
59442;SDS011;45247;47.466;19.004;2022-09-03T15:31:46;5.35;;;2.75;;
59442;SDS011;45247;47.466;19.004;2022-09-03T15:34:34;5.97;;;2.97;;
59442;SDS011;45247;47.466;19.004;2022-09-03T15:37:17;4.63;;;2.95;;
59442;SDS011;45247;47.466;19.004;2022-09-03T15:39:56;14.25;;;3.40;;
59442;SDS011;45247;47.466;19.004;2022-09-03T15:42:29;5.88;;;3.15;;